<?xml version="1.0" encoding="UTF-8" standalone="no" ?>
<gpx xmlns="http://www.topografix.com/GPX/1/1" xmlns:xsi="http://www.w3.org/2001/XMLSchema-instance" xsi:schemaLocation="http://www.topografix.com/GPX/1/1 http://www.topografix.com/GPX/1/1/gpx.xsd" version="1.1" creator="VisuGPX - https://www.visugpx.com">
  <metadata>
    <name>Erquy, plage du Guen</name>
    <desc><![CDATA[Erquy, plage du Guen.]]></desc>
  </metadata>
  <trk>
    <name><![CDATA[AVR-26-15 16:22:52]]></name>
    <trkseg>
      <trkpt lat="48.63918" lon="-2.45274">
        <ele>79.93</ele>
        <time>2015-04-26T12:09:13Z</time>
      </trkpt>
      <trkpt lat="48.63918" lon="-2.45275">
        <ele>80.41</ele>
        <time>2015-04-26T12:09:14Z</time>
      </trkpt>
      <trkpt lat="48.63917" lon="-2.45301">
        <ele>79.93</ele>
        <time>2015-04-26T12:09:32Z</time>
      </trkpt>
      <trkpt lat="48.63915" lon="-2.45307">
        <ele>79.93</ele>
        <time>2015-04-26T12:09:35Z</time>
      </trkpt>
      <trkpt lat="48.63912" lon="-2.45329">
        <ele>79.45</ele>
        <time>2015-04-26T12:09:52Z</time>
      </trkpt>
      <trkpt lat="48.63909" lon="-2.45336">
        <ele>79.45</ele>
        <time>2015-04-26T12:09:57Z</time>
      </trkpt>
      <trkpt lat="48.63906" lon="-2.45343">
        <ele>79.45</ele>
        <time>2015-04-26T12:10:02Z</time>
      </trkpt>
      <trkpt lat="48.63904" lon="-2.45363">
        <ele>78.97</ele>
        <time>2015-04-26T12:10:15Z</time>
      </trkpt>
      <trkpt lat="48.63907" lon="-2.45396">
        <ele>78.48</ele>
        <time>2015-04-26T12:10:35Z</time>
      </trkpt>
      <trkpt lat="48.63909" lon="-2.45421">
        <ele>78</ele>
        <time>2015-04-26T12:10:52Z</time>
      </trkpt>
      <trkpt lat="48.6391" lon="-2.45424">
        <ele>77.52</ele>
        <time>2015-04-26T12:10:54Z</time>
      </trkpt>
      <trkpt lat="48.6391" lon="-2.45432">
        <ele>77.52</ele>
        <time>2015-04-26T12:10:58Z</time>
      </trkpt>
      <trkpt lat="48.63912" lon="-2.45445">
        <ele>77.04</ele>
        <time>2015-04-26T12:11:07Z</time>
      </trkpt>
      <trkpt lat="48.63914" lon="-2.45447">
        <ele>77.52</ele>
        <time>2015-04-26T12:11:09Z</time>
      </trkpt>
      <trkpt lat="48.63916" lon="-2.45446">
        <ele>77.52</ele>
        <time>2015-04-26T12:11:29Z</time>
      </trkpt>
      <trkpt lat="48.63915" lon="-2.45459">
        <ele>76.56</ele>
        <time>2015-04-26T12:12:01Z</time>
      </trkpt>
      <trkpt lat="48.63915" lon="-2.45463">
        <ele>76.56</ele>
        <time>2015-04-26T12:12:04Z</time>
      </trkpt>
      <trkpt lat="48.63913" lon="-2.45493">
        <ele>75.6</ele>
        <time>2015-04-26T12:12:24Z</time>
      </trkpt>
      <trkpt lat="48.63913" lon="-2.45526">
        <ele>74.64</ele>
        <time>2015-04-26T12:12:43Z</time>
      </trkpt>
      <trkpt lat="48.63905" lon="-2.45556">
        <ele>74.16</ele>
        <time>2015-04-26T12:13:02Z</time>
      </trkpt>
      <trkpt lat="48.63904" lon="-2.45556">
        <ele>73.68</ele>
        <time>2015-04-26T12:13:03Z</time>
      </trkpt>
      <trkpt lat="48.63892" lon="-2.45561">
        <ele>73.68</ele>
        <time>2015-04-26T12:13:14Z</time>
      </trkpt>
      <trkpt lat="48.63872" lon="-2.4556">
        <ele>74.16</ele>
        <time>2015-04-26T12:13:32Z</time>
      </trkpt>
      <trkpt lat="48.6387" lon="-2.4556">
        <ele>73.68</ele>
        <time>2015-04-26T12:13:34Z</time>
      </trkpt>
      <trkpt lat="48.63843" lon="-2.45559">
        <ele>74.64</ele>
        <time>2015-04-26T12:13:59Z</time>
      </trkpt>
      <trkpt lat="48.63823" lon="-2.45557">
        <ele>75.12</ele>
        <time>2015-04-26T12:14:18Z</time>
      </trkpt>
      <trkpt lat="48.63798" lon="-2.45555">
        <ele>76.08</ele>
        <time>2015-04-26T12:14:41Z</time>
      </trkpt>
      <trkpt lat="48.63797" lon="-2.4555">
        <ele>76.08</ele>
        <time>2015-04-26T12:14:50Z</time>
      </trkpt>
      <trkpt lat="48.63798" lon="-2.45544">
        <ele>76.08</ele>
        <time>2015-04-26T12:14:55Z</time>
      </trkpt>
      <trkpt lat="48.63799" lon="-2.45517">
        <ele>76.08</ele>
        <time>2015-04-26T12:15:14Z</time>
      </trkpt>
      <trkpt lat="48.63799" lon="-2.45512">
        <ele>76.56</ele>
        <time>2015-04-26T12:15:17Z</time>
      </trkpt>
      <trkpt lat="48.63799" lon="-2.45507">
        <ele>76.08</ele>
        <time>2015-04-26T12:15:20Z</time>
      </trkpt>
      <trkpt lat="48.63799" lon="-2.45471">
        <ele>76.08</ele>
        <time>2015-04-26T12:15:41Z</time>
      </trkpt>
      <trkpt lat="48.63799" lon="-2.45442">
        <ele>76.08</ele>
        <time>2015-04-26T12:15:59Z</time>
      </trkpt>
      <trkpt lat="48.638" lon="-2.45434">
        <ele>76.08</ele>
        <time>2015-04-26T12:16:04Z</time>
      </trkpt>
      <trkpt lat="48.638" lon="-2.45413">
        <ele>76.08</ele>
        <time>2015-04-26T12:16:17Z</time>
      </trkpt>
      <trkpt lat="48.63801" lon="-2.45396">
        <ele>76.08</ele>
        <time>2015-04-26T12:16:28Z</time>
      </trkpt>
      <trkpt lat="48.638" lon="-2.45377">
        <ele>76.56</ele>
        <time>2015-04-26T12:16:39Z</time>
      </trkpt>
      <trkpt lat="48.63801" lon="-2.45374">
        <ele>76.08</ele>
        <time>2015-04-26T12:16:41Z</time>
      </trkpt>
      <trkpt lat="48.638" lon="-2.45355">
        <ele>76.56</ele>
        <time>2015-04-26T12:16:52Z</time>
      </trkpt>
      <trkpt lat="48.638" lon="-2.45352">
        <ele>77.04</ele>
        <time>2015-04-26T12:16:54Z</time>
      </trkpt>
      <trkpt lat="48.63801" lon="-2.45315">
        <ele>77.04</ele>
        <time>2015-04-26T12:17:17Z</time>
      </trkpt>
      <trkpt lat="48.63802" lon="-2.45298">
        <ele>77.04</ele>
        <time>2015-04-26T12:17:27Z</time>
      </trkpt>
      <trkpt lat="48.63805" lon="-2.45259">
        <ele>77.52</ele>
        <time>2015-04-26T12:17:49Z</time>
      </trkpt>
      <trkpt lat="48.63805" lon="-2.45251">
        <ele>77.52</ele>
        <time>2015-04-26T12:17:54Z</time>
      </trkpt>
      <trkpt lat="48.63806" lon="-2.4522">
        <ele>77.52</ele>
        <time>2015-04-26T12:18:15Z</time>
      </trkpt>
      <trkpt lat="48.6381" lon="-2.45194">
        <ele>78</ele>
        <time>2015-04-26T12:18:34Z</time>
      </trkpt>
      <trkpt lat="48.6381" lon="-2.45188">
        <ele>77.52</ele>
        <time>2015-04-26T12:18:38Z</time>
      </trkpt>
      <trkpt lat="48.63812" lon="-2.45182">
        <ele>78</ele>
        <time>2015-04-26T12:18:41Z</time>
      </trkpt>
      <trkpt lat="48.6381" lon="-2.4517">
        <ele>78</ele>
        <time>2015-04-26T12:18:57Z</time>
      </trkpt>
      <trkpt lat="48.6381" lon="-2.45163">
        <ele>78</ele>
        <time>2015-04-26T12:19:02Z</time>
      </trkpt>
      <trkpt lat="48.63809" lon="-2.45153">
        <ele>78.48</ele>
        <time>2015-04-26T12:19:09Z</time>
      </trkpt>
      <trkpt lat="48.6381" lon="-2.45118">
        <ele>78.48</ele>
        <time>2015-04-26T12:19:28Z</time>
      </trkpt>
      <trkpt lat="48.6381" lon="-2.45106">
        <ele>78</ele>
        <time>2015-04-26T12:19:35Z</time>
      </trkpt>
      <trkpt lat="48.63809" lon="-2.45075">
        <ele>78.97</ele>
        <time>2015-04-26T12:19:54Z</time>
      </trkpt>
      <trkpt lat="48.63809" lon="-2.45064">
        <ele>78.97</ele>
        <time>2015-04-26T12:20:01Z</time>
      </trkpt>
      <trkpt lat="48.63811" lon="-2.45034">
        <ele>79.45</ele>
        <time>2015-04-26T12:20:20Z</time>
      </trkpt>
      <trkpt lat="48.63811" lon="-2.45025">
        <ele>79.93</ele>
        <time>2015-04-26T12:20:25Z</time>
      </trkpt>
      <trkpt lat="48.63812" lon="-2.45016">
        <ele>79.93</ele>
        <time>2015-04-26T12:20:30Z</time>
      </trkpt>
      <trkpt lat="48.63812" lon="-2.44979">
        <ele>79.45</ele>
        <time>2015-04-26T12:20:51Z</time>
      </trkpt>
      <trkpt lat="48.63811" lon="-2.44969">
        <ele>79.45</ele>
        <time>2015-04-26T12:20:57Z</time>
      </trkpt>
      <trkpt lat="48.63811" lon="-2.44935">
        <ele>78.97</ele>
        <time>2015-04-26T12:21:17Z</time>
      </trkpt>
      <trkpt lat="48.63813" lon="-2.44915">
        <ele>78.48</ele>
        <time>2015-04-26T12:21:29Z</time>
      </trkpt>
      <trkpt lat="48.63814" lon="-2.44883">
        <ele>78</ele>
        <time>2015-04-26T12:21:47Z</time>
      </trkpt>
      <trkpt lat="48.63813" lon="-2.44859">
        <ele>77.52</ele>
        <time>2015-04-26T12:22:03Z</time>
      </trkpt>
      <trkpt lat="48.63817" lon="-2.4483">
        <ele>77.04</ele>
        <time>2015-04-26T12:22:15Z</time>
      </trkpt>
      <trkpt lat="48.63817" lon="-2.44817">
        <ele>77.04</ele>
        <time>2015-04-26T12:22:23Z</time>
      </trkpt>
      <trkpt lat="48.63818" lon="-2.44807">
        <ele>76.56</ele>
        <time>2015-04-26T12:22:30Z</time>
      </trkpt>
      <trkpt lat="48.63818" lon="-2.44799">
        <ele>76.08</ele>
        <time>2015-04-26T12:22:34Z</time>
      </trkpt>
      <trkpt lat="48.63817" lon="-2.44775">
        <ele>75.12</ele>
        <time>2015-04-26T12:22:47Z</time>
      </trkpt>
      <trkpt lat="48.63818" lon="-2.44746">
        <ele>75.12</ele>
        <time>2015-04-26T12:23:05Z</time>
      </trkpt>
      <trkpt lat="48.63818" lon="-2.4471">
        <ele>74.64</ele>
        <time>2015-04-26T12:23:24Z</time>
      </trkpt>
      <trkpt lat="48.6382" lon="-2.44672">
        <ele>74.64</ele>
        <time>2015-04-26T12:23:45Z</time>
      </trkpt>
      <trkpt lat="48.6382" lon="-2.44671">
        <ele>75.12</ele>
        <time>2015-04-26T12:23:46Z</time>
      </trkpt>
      <trkpt lat="48.63822" lon="-2.44663">
        <ele>74.64</ele>
        <time>2015-04-26T12:23:50Z</time>
      </trkpt>
      <trkpt lat="48.63823" lon="-2.44652">
        <ele>75.12</ele>
        <time>2015-04-26T12:23:56Z</time>
      </trkpt>
      <trkpt lat="48.63824" lon="-2.44647">
        <ele>74.64</ele>
        <time>2015-04-26T12:23:59Z</time>
      </trkpt>
      <trkpt lat="48.63823" lon="-2.44615">
        <ele>71.76</ele>
        <time>2015-04-26T12:24:19Z</time>
      </trkpt>
      <trkpt lat="48.63823" lon="-2.44615">
        <ele>74.64</ele>
        <time>2015-04-26T12:24:20Z</time>
      </trkpt>
      <trkpt lat="48.63823" lon="-2.4461">
        <ele>74.16</ele>
        <time>2015-04-26T12:24:26Z</time>
      </trkpt>
      <trkpt lat="48.63823" lon="-2.44603">
        <ele>69.83</ele>
        <time>2015-04-26T12:24:30Z</time>
      </trkpt>
      <trkpt lat="48.63823" lon="-2.44602">
        <ele>74.64</ele>
        <time>2015-04-26T12:24:31Z</time>
      </trkpt>
      <trkpt lat="48.63823" lon="-2.446">
        <ele>78</ele>
        <time>2015-04-26T12:24:33Z</time>
      </trkpt>
      <trkpt lat="48.63823" lon="-2.44597">
        <ele>74.64</ele>
        <time>2015-04-26T12:24:35Z</time>
      </trkpt>
      <trkpt lat="48.63823" lon="-2.44596">
        <ele>74.64</ele>
        <time>2015-04-26T12:24:36Z</time>
      </trkpt>
      <trkpt lat="48.63822" lon="-2.44554">
        <ele>74.64</ele>
        <time>2015-04-26T12:24:58Z</time>
      </trkpt>
      <trkpt lat="48.63822" lon="-2.4455">
        <ele>73.68</ele>
        <time>2015-04-26T12:25:00Z</time>
      </trkpt>
      <trkpt lat="48.63823" lon="-2.44532">
        <ele>74.64</ele>
        <time>2015-04-26T12:25:10Z</time>
      </trkpt>
      <trkpt lat="48.63824" lon="-2.44498">
        <ele>73.68</ele>
        <time>2015-04-26T12:25:31Z</time>
      </trkpt>
      <trkpt lat="48.63825" lon="-2.44462">
        <ele>73.2</ele>
        <time>2015-04-26T12:25:52Z</time>
      </trkpt>
      <trkpt lat="48.63826" lon="-2.44435">
        <ele>72.24</ele>
        <time>2015-04-26T12:26:08Z</time>
      </trkpt>
      <trkpt lat="48.63828" lon="-2.44412">
        <ele>71.76</ele>
        <time>2015-04-26T12:26:21Z</time>
      </trkpt>
      <trkpt lat="48.63827" lon="-2.44376">
        <ele>71.76</ele>
        <time>2015-04-26T12:26:43Z</time>
      </trkpt>
      <trkpt lat="48.63825" lon="-2.44344">
        <ele>70.79</ele>
        <time>2015-04-26T12:27:01Z</time>
      </trkpt>
      <trkpt lat="48.63826" lon="-2.44304">
        <ele>71.27</ele>
        <time>2015-04-26T12:27:22Z</time>
      </trkpt>
      <trkpt lat="48.63827" lon="-2.44297">
        <ele>70.79</ele>
        <time>2015-04-26T12:27:27Z</time>
      </trkpt>
      <trkpt lat="48.63826" lon="-2.44263">
        <ele>70.79</ele>
        <time>2015-04-26T12:27:46Z</time>
      </trkpt>
      <trkpt lat="48.63826" lon="-2.44262">
        <ele>71.27</ele>
        <time>2015-04-26T12:27:47Z</time>
      </trkpt>
      <trkpt lat="48.63829" lon="-2.44223">
        <ele>71.76</ele>
        <time>2015-04-26T12:28:08Z</time>
      </trkpt>
      <trkpt lat="48.6383" lon="-2.4419">
        <ele>71.76</ele>
        <time>2015-04-26T12:28:25Z</time>
      </trkpt>
      <trkpt lat="48.63831" lon="-2.44167">
        <ele>72.24</ele>
        <time>2015-04-26T12:28:43Z</time>
      </trkpt>
      <trkpt lat="48.63832" lon="-2.44151">
        <ele>71.76</ele>
        <time>2015-04-26T12:28:53Z</time>
      </trkpt>
      <trkpt lat="48.63831" lon="-2.44134">
        <ele>71.76</ele>
        <time>2015-04-26T12:29:01Z</time>
      </trkpt>
      <trkpt lat="48.63833" lon="-2.44097">
        <ele>71.27</ele>
        <time>2015-04-26T12:29:24Z</time>
      </trkpt>
      <trkpt lat="48.63837" lon="-2.4408">
        <ele>71.27</ele>
        <time>2015-04-26T12:29:36Z</time>
      </trkpt>
      <trkpt lat="48.6386" lon="-2.44078">
        <ele>69.83</ele>
        <time>2015-04-26T12:29:59Z</time>
      </trkpt>
      <trkpt lat="48.63865" lon="-2.44079">
        <ele>69.83</ele>
        <time>2015-04-26T12:30:04Z</time>
      </trkpt>
      <trkpt lat="48.63867" lon="-2.4408">
        <ele>69.35</ele>
        <time>2015-04-26T12:30:06Z</time>
      </trkpt>
      <trkpt lat="48.63889" lon="-2.44085">
        <ele>68.87</ele>
        <time>2015-04-26T12:30:27Z</time>
      </trkpt>
      <trkpt lat="48.6391" lon="-2.44085">
        <ele>67.91</ele>
        <time>2015-04-26T12:30:45Z</time>
      </trkpt>
      <trkpt lat="48.63924" lon="-2.44087">
        <ele>67.91</ele>
        <time>2015-04-26T12:30:58Z</time>
      </trkpt>
      <trkpt lat="48.63942" lon="-2.44088">
        <ele>67.43</ele>
        <time>2015-04-26T12:31:15Z</time>
      </trkpt>
      <trkpt lat="48.63969" lon="-2.44088">
        <ele>65.99</ele>
        <time>2015-04-26T12:31:38Z</time>
      </trkpt>
      <trkpt lat="48.63981" lon="-2.4409">
        <ele>65.51</ele>
        <time>2015-04-26T12:31:48Z</time>
      </trkpt>
      <trkpt lat="48.63997" lon="-2.44089">
        <ele>65.03</ele>
        <time>2015-04-26T12:32:02Z</time>
      </trkpt>
      <trkpt lat="48.64025" lon="-2.44089">
        <ele>64.07</ele>
        <time>2015-04-26T12:32:27Z</time>
      </trkpt>
      <trkpt lat="48.6405" lon="-2.44091">
        <ele>63.1</ele>
        <time>2015-04-26T12:32:50Z</time>
      </trkpt>
      <trkpt lat="48.64066" lon="-2.44094">
        <ele>62.62</ele>
        <time>2015-04-26T12:33:05Z</time>
      </trkpt>
      <trkpt lat="48.64074" lon="-2.44095">
        <ele>62.14</ele>
        <time>2015-04-26T12:33:14Z</time>
      </trkpt>
      <trkpt lat="48.64078" lon="-2.44097">
        <ele>61.66</ele>
        <time>2015-04-26T12:33:17Z</time>
      </trkpt>
      <trkpt lat="48.64096" lon="-2.44098">
        <ele>60.7</ele>
        <time>2015-04-26T12:33:34Z</time>
      </trkpt>
      <trkpt lat="48.64119" lon="-2.44096">
        <ele>60.22</ele>
        <time>2015-04-26T12:33:54Z</time>
      </trkpt>
      <trkpt lat="48.64122" lon="-2.44098">
        <ele>60.22</ele>
        <time>2015-04-26T12:33:57Z</time>
      </trkpt>
      <trkpt lat="48.64143" lon="-2.44103">
        <ele>58.78</ele>
        <time>2015-04-26T12:34:17Z</time>
      </trkpt>
      <trkpt lat="48.64165" lon="-2.44103">
        <ele>58.3</ele>
        <time>2015-04-26T12:34:35Z</time>
      </trkpt>
      <trkpt lat="48.64184" lon="-2.44103">
        <ele>57.82</ele>
        <time>2015-04-26T12:34:52Z</time>
      </trkpt>
      <trkpt lat="48.64205" lon="-2.44106">
        <ele>56.86</ele>
        <time>2015-04-26T12:35:10Z</time>
      </trkpt>
      <trkpt lat="48.64227" lon="-2.44107">
        <ele>56.37</ele>
        <time>2015-04-26T12:35:30Z</time>
      </trkpt>
      <trkpt lat="48.64244" lon="-2.441">
        <ele>56.37</ele>
        <time>2015-04-26T12:35:44Z</time>
      </trkpt>
      <trkpt lat="48.64246" lon="-2.44086">
        <ele>55.89</ele>
        <time>2015-04-26T12:35:52Z</time>
      </trkpt>
      <trkpt lat="48.64246" lon="-2.44069">
        <ele>52.53</ele>
        <time>2015-04-26T12:36:00Z</time>
      </trkpt>
      <trkpt lat="48.64247" lon="-2.4405">
        <ele>55.89</ele>
        <time>2015-04-26T12:36:11Z</time>
      </trkpt>
      <trkpt lat="48.64248" lon="-2.44031">
        <ele>49.65</ele>
        <time>2015-04-26T12:36:23Z</time>
      </trkpt>
      <trkpt lat="48.64248" lon="-2.44029">
        <ele>54.45</ele>
        <time>2015-04-26T12:36:24Z</time>
      </trkpt>
      <trkpt lat="48.64247" lon="-2.43995">
        <ele>55.41</ele>
        <time>2015-04-26T12:36:44Z</time>
      </trkpt>
      <trkpt lat="48.64248" lon="-2.43989">
        <ele>55.41</ele>
        <time>2015-04-26T12:36:48Z</time>
      </trkpt>
      <trkpt lat="48.64269" lon="-2.43984">
        <ele>55.41</ele>
        <time>2015-04-26T12:37:10Z</time>
      </trkpt>
      <trkpt lat="48.64294" lon="-2.43986">
        <ele>54.93</ele>
        <time>2015-04-26T12:37:33Z</time>
      </trkpt>
      <trkpt lat="48.64318" lon="-2.43987">
        <ele>54.45</ele>
        <time>2015-04-26T12:37:55Z</time>
      </trkpt>
      <trkpt lat="48.64324" lon="-2.43987">
        <ele>53.97</ele>
        <time>2015-04-26T12:38:00Z</time>
      </trkpt>
      <trkpt lat="48.64347" lon="-2.43988">
        <ele>53.97</ele>
        <time>2015-04-26T12:38:19Z</time>
      </trkpt>
      <trkpt lat="48.64354" lon="-2.43987">
        <ele>53.97</ele>
        <time>2015-04-26T12:38:25Z</time>
      </trkpt>
      <trkpt lat="48.64378" lon="-2.43986">
        <ele>53.01</ele>
        <time>2015-04-26T12:38:47Z</time>
      </trkpt>
      <trkpt lat="48.6438" lon="-2.43985">
        <ele>53.01</ele>
        <time>2015-04-26T12:38:49Z</time>
      </trkpt>
      <trkpt lat="48.64386" lon="-2.43983">
        <ele>53.01</ele>
        <time>2015-04-26T12:38:54Z</time>
      </trkpt>
      <trkpt lat="48.6441" lon="-2.4397">
        <ele>53.01</ele>
        <time>2015-04-26T12:39:16Z</time>
      </trkpt>
      <trkpt lat="48.64422" lon="-2.4396">
        <ele>52.53</ele>
        <time>2015-04-26T12:39:28Z</time>
      </trkpt>
      <trkpt lat="48.64424" lon="-2.43957">
        <ele>52.53</ele>
        <time>2015-04-26T12:39:30Z</time>
      </trkpt>
      <trkpt lat="48.64435" lon="-2.4395">
        <ele>53.01</ele>
        <time>2015-04-26T12:39:40Z</time>
      </trkpt>
      <trkpt lat="48.64455" lon="-2.43937">
        <ele>53.49</ele>
        <time>2015-04-26T12:40:00Z</time>
      </trkpt>
      <trkpt lat="48.64478" lon="-2.43937">
        <ele>53.97</ele>
        <time>2015-04-26T12:40:21Z</time>
      </trkpt>
      <trkpt lat="48.64499" lon="-2.43938">
        <ele>54.45</ele>
        <time>2015-04-26T12:40:41Z</time>
      </trkpt>
      <trkpt lat="48.6452" lon="-2.4394">
        <ele>54.45</ele>
        <time>2015-04-26T12:41:01Z</time>
      </trkpt>
      <trkpt lat="48.64535" lon="-2.43942">
        <ele>54.45</ele>
        <time>2015-04-26T12:41:15Z</time>
      </trkpt>
      <trkpt lat="48.64558" lon="-2.43942">
        <ele>54.93</ele>
        <time>2015-04-26T12:41:37Z</time>
      </trkpt>
      <trkpt lat="48.64563" lon="-2.43939">
        <ele>55.41</ele>
        <time>2015-04-26T12:41:57Z</time>
      </trkpt>
      <trkpt lat="48.64565" lon="-2.43941">
        <ele>55.89</ele>
        <time>2015-04-26T12:42:01Z</time>
      </trkpt>
      <trkpt lat="48.64577" lon="-2.43944">
        <ele>51.57</ele>
        <time>2015-04-26T12:42:10Z</time>
      </trkpt>
      <trkpt lat="48.64578" lon="-2.43944">
        <ele>55.89</ele>
        <time>2015-04-26T12:42:11Z</time>
      </trkpt>
      <trkpt lat="48.6458" lon="-2.43945">
        <ele>54.93</ele>
        <time>2015-04-26T12:42:13Z</time>
      </trkpt>
      <trkpt lat="48.64603" lon="-2.43946">
        <ele>55.89</ele>
        <time>2015-04-26T12:42:31Z</time>
      </trkpt>
      <trkpt lat="48.6461" lon="-2.43946">
        <ele>55.89</ele>
        <time>2015-04-26T12:42:36Z</time>
      </trkpt>
      <trkpt lat="48.64629" lon="-2.43948">
        <ele>56.37</ele>
        <time>2015-04-26T12:42:52Z</time>
      </trkpt>
      <trkpt lat="48.64635" lon="-2.4395">
        <ele>56.37</ele>
        <time>2015-04-26T12:42:57Z</time>
      </trkpt>
      <trkpt lat="48.64641" lon="-2.4395">
        <ele>56.37</ele>
        <time>2015-04-26T12:43:02Z</time>
      </trkpt>
      <trkpt lat="48.64663" lon="-2.43947">
        <ele>56.37</ele>
        <time>2015-04-26T12:43:22Z</time>
      </trkpt>
      <trkpt lat="48.64669" lon="-2.43921">
        <ele>57.34</ele>
        <time>2015-04-26T12:43:38Z</time>
      </trkpt>
      <trkpt lat="48.6467" lon="-2.43919">
        <ele>55.41</ele>
        <time>2015-04-26T12:43:39Z</time>
      </trkpt>
      <trkpt lat="48.6467" lon="-2.43915">
        <ele>54.45</ele>
        <time>2015-04-26T12:43:41Z</time>
      </trkpt>
      <trkpt lat="48.64671" lon="-2.43873">
        <ele>54.45</ele>
        <time>2015-04-26T12:44:05Z</time>
      </trkpt>
      <trkpt lat="48.6467" lon="-2.43851">
        <ele>53.97</ele>
        <time>2015-04-26T12:44:18Z</time>
      </trkpt>
      <trkpt lat="48.64671" lon="-2.43846">
        <ele>53.97</ele>
        <time>2015-04-26T12:44:21Z</time>
      </trkpt>
      <trkpt lat="48.64657" lon="-2.43814">
        <ele>53.49</ele>
        <time>2015-04-26T12:44:43Z</time>
      </trkpt>
      <trkpt lat="48.64641" lon="-2.43789">
        <ele>53.97</ele>
        <time>2015-04-26T12:45:04Z</time>
      </trkpt>
      <trkpt lat="48.64624" lon="-2.43759">
        <ele>54.45</ele>
        <time>2015-04-26T12:45:27Z</time>
      </trkpt>
      <trkpt lat="48.64614" lon="-2.4374">
        <ele>54.45</ele>
        <time>2015-04-26T12:45:42Z</time>
      </trkpt>
      <trkpt lat="48.64607" lon="-2.43725">
        <ele>54.45</ele>
        <time>2015-04-26T12:45:52Z</time>
      </trkpt>
      <trkpt lat="48.64605" lon="-2.43719">
        <ele>54.45</ele>
        <time>2015-04-26T12:45:57Z</time>
      </trkpt>
      <trkpt lat="48.64603" lon="-2.43713">
        <ele>54.93</ele>
        <time>2015-04-26T12:46:01Z</time>
      </trkpt>
      <trkpt lat="48.64602" lon="-2.4371">
        <ele>54.93</ele>
        <time>2015-04-26T12:46:03Z</time>
      </trkpt>
      <trkpt lat="48.64601" lon="-2.43707">
        <ele>54.45</ele>
        <time>2015-04-26T12:46:05Z</time>
      </trkpt>
      <trkpt lat="48.64598" lon="-2.43701">
        <ele>54.45</ele>
        <time>2015-04-26T12:46:27Z</time>
      </trkpt>
      <trkpt lat="48.64589" lon="-2.43701">
        <ele>55.41</ele>
        <time>2015-04-26T12:46:36Z</time>
      </trkpt>
      <trkpt lat="48.64586" lon="-2.43704">
        <ele>54.93</ele>
        <time>2015-04-26T12:46:40Z</time>
      </trkpt>
      <trkpt lat="48.64582" lon="-2.43711">
        <ele>52.53</ele>
        <time>2015-04-26T12:46:45Z</time>
      </trkpt>
      <trkpt lat="48.6457" lon="-2.43731">
        <ele>55.89</ele>
        <time>2015-04-26T12:47:00Z</time>
      </trkpt>
      <trkpt lat="48.64564" lon="-2.43736">
        <ele>54.45</ele>
        <time>2015-04-26T12:47:11Z</time>
      </trkpt>
      <trkpt lat="48.64558" lon="-2.43741">
        <ele>55.41</ele>
        <time>2015-04-26T12:47:17Z</time>
      </trkpt>
      <trkpt lat="48.64539" lon="-2.43764">
        <ele>55.41</ele>
        <time>2015-04-26T12:47:39Z</time>
      </trkpt>
      <trkpt lat="48.64524" lon="-2.43785">
        <ele>54.93</ele>
        <time>2015-04-26T12:47:59Z</time>
      </trkpt>
      <trkpt lat="48.64523" lon="-2.43785">
        <ele>54.93</ele>
        <time>2015-04-26T12:48:40Z</time>
      </trkpt>
      <trkpt lat="48.64524" lon="-2.43786">
        <ele>54.93</ele>
        <time>2015-04-26T12:49:07Z</time>
      </trkpt>
      <trkpt lat="48.64519" lon="-2.43786">
        <ele>54.45</ele>
        <time>2015-04-26T12:50:14Z</time>
      </trkpt>
      <trkpt lat="48.6452" lon="-2.43788">
        <ele>54.45</ele>
        <time>2015-04-26T12:50:33Z</time>
      </trkpt>
      <trkpt lat="48.64515" lon="-2.43785">
        <ele>54.45</ele>
        <time>2015-04-26T12:50:46Z</time>
      </trkpt>
      <trkpt lat="48.6451" lon="-2.43779">
        <ele>54.93</ele>
        <time>2015-04-26T12:50:52Z</time>
      </trkpt>
      <trkpt lat="48.64499" lon="-2.43756">
        <ele>55.41</ele>
        <time>2015-04-26T12:51:11Z</time>
      </trkpt>
      <trkpt lat="48.64486" lon="-2.43731">
        <ele>55.89</ele>
        <time>2015-04-26T12:51:30Z</time>
      </trkpt>
      <trkpt lat="48.64482" lon="-2.43724">
        <ele>55.89</ele>
        <time>2015-04-26T12:51:35Z</time>
      </trkpt>
      <trkpt lat="48.64474" lon="-2.43708">
        <ele>55.89</ele>
        <time>2015-04-26T12:51:47Z</time>
      </trkpt>
      <trkpt lat="48.6447" lon="-2.43701">
        <ele>55.41</ele>
        <time>2015-04-26T12:51:52Z</time>
      </trkpt>
      <trkpt lat="48.64467" lon="-2.43693">
        <ele>55.89</ele>
        <time>2015-04-26T12:51:57Z</time>
      </trkpt>
      <trkpt lat="48.64452" lon="-2.43662">
        <ele>55.89</ele>
        <time>2015-04-26T12:52:19Z</time>
      </trkpt>
      <trkpt lat="48.64442" lon="-2.43642">
        <ele>55.89</ele>
        <time>2015-04-26T12:52:34Z</time>
      </trkpt>
      <trkpt lat="48.64435" lon="-2.43629">
        <ele>55.89</ele>
        <time>2015-04-26T12:52:44Z</time>
      </trkpt>
      <trkpt lat="48.64433" lon="-2.43624">
        <ele>55.89</ele>
        <time>2015-04-26T12:52:48Z</time>
      </trkpt>
      <trkpt lat="48.6443" lon="-2.43618">
        <ele>56.37</ele>
        <time>2015-04-26T12:52:53Z</time>
      </trkpt>
      <trkpt lat="48.64431" lon="-2.4361">
        <ele>55.41</ele>
        <time>2015-04-26T12:53:00Z</time>
      </trkpt>
      <trkpt lat="48.64436" lon="-2.43597">
        <ele>55.41</ele>
        <time>2015-04-26T12:53:10Z</time>
      </trkpt>
      <trkpt lat="48.64443" lon="-2.43568">
        <ele>54.93</ele>
        <time>2015-04-26T12:53:28Z</time>
      </trkpt>
      <trkpt lat="48.64444" lon="-2.43563">
        <ele>54.93</ele>
        <time>2015-04-26T12:53:31Z</time>
      </trkpt>
      <trkpt lat="48.64448" lon="-2.43542">
        <ele>54.45</ele>
        <time>2015-04-26T12:53:45Z</time>
      </trkpt>
      <trkpt lat="48.64441" lon="-2.43535">
        <ele>53.97</ele>
        <time>2015-04-26T12:54:03Z</time>
      </trkpt>
      <trkpt lat="48.64435" lon="-2.43533">
        <ele>54.45</ele>
        <time>2015-04-26T12:54:20Z</time>
      </trkpt>
      <trkpt lat="48.64427" lon="-2.4353">
        <ele>54.45</ele>
        <time>2015-04-26T12:54:28Z</time>
      </trkpt>
      <trkpt lat="48.64422" lon="-2.43532">
        <ele>56.37</ele>
        <time>2015-04-26T12:54:41Z</time>
      </trkpt>
      <trkpt lat="48.64422" lon="-2.43532">
        <ele>52.05</ele>
        <time>2015-04-26T12:54:44Z</time>
      </trkpt>
      <trkpt lat="48.64422" lon="-2.43532">
        <ele>55.89</ele>
        <time>2015-04-26T12:54:45Z</time>
      </trkpt>
      <trkpt lat="48.64422" lon="-2.43532">
        <ele>41.47</ele>
        <time>2015-04-26T12:54:46Z</time>
      </trkpt>
      <trkpt lat="48.64422" lon="-2.43532">
        <ele>55.89</ele>
        <time>2015-04-26T12:54:47Z</time>
      </trkpt>
      <trkpt lat="48.64423" lon="-2.43532">
        <ele>54.93</ele>
        <time>2015-04-26T12:54:48Z</time>
      </trkpt>
      <trkpt lat="48.64438" lon="-2.43531">
        <ele>54.45</ele>
        <time>2015-04-26T12:55:10Z</time>
      </trkpt>
      <trkpt lat="48.64445" lon="-2.43525">
        <ele>54.45</ele>
        <time>2015-04-26T12:55:26Z</time>
      </trkpt>
      <trkpt lat="48.64464" lon="-2.4351">
        <ele>54.45</ele>
        <time>2015-04-26T12:55:48Z</time>
      </trkpt>
      <trkpt lat="48.64484" lon="-2.43489">
        <ele>53.97</ele>
        <time>2015-04-26T12:56:10Z</time>
      </trkpt>
      <trkpt lat="48.645" lon="-2.43462">
        <ele>53.97</ele>
        <time>2015-04-26T12:56:33Z</time>
      </trkpt>
      <trkpt lat="48.64517" lon="-2.43443">
        <ele>53.97</ele>
        <time>2015-04-26T12:56:55Z</time>
      </trkpt>
      <trkpt lat="48.64518" lon="-2.43442">
        <ele>53.97</ele>
        <time>2015-04-26T12:56:56Z</time>
      </trkpt>
      <trkpt lat="48.64539" lon="-2.4344">
        <ele>54.93</ele>
        <time>2015-04-26T12:57:17Z</time>
      </trkpt>
      <trkpt lat="48.64564" lon="-2.4344">
        <ele>55.89</ele>
        <time>2015-04-26T12:57:37Z</time>
      </trkpt>
      <trkpt lat="48.64568" lon="-2.4344">
        <ele>55.89</ele>
        <time>2015-04-26T12:57:40Z</time>
      </trkpt>
      <trkpt lat="48.64578" lon="-2.43437">
        <ele>55.89</ele>
        <time>2015-04-26T12:57:48Z</time>
      </trkpt>
      <trkpt lat="48.64605" lon="-2.43429">
        <ele>56.37</ele>
        <time>2015-04-26T12:58:09Z</time>
      </trkpt>
      <trkpt lat="48.64611" lon="-2.43429">
        <ele>56.37</ele>
        <time>2015-04-26T12:58:14Z</time>
      </trkpt>
      <trkpt lat="48.64614" lon="-2.43427">
        <ele>56.37</ele>
        <time>2015-04-26T12:58:17Z</time>
      </trkpt>
      <trkpt lat="48.6464" lon="-2.43424">
        <ele>55.89</ele>
        <time>2015-04-26T12:58:39Z</time>
      </trkpt>
      <trkpt lat="48.64663" lon="-2.43416">
        <ele>55.89</ele>
        <time>2015-04-26T12:58:59Z</time>
      </trkpt>
      <trkpt lat="48.64686" lon="-2.43404">
        <ele>55.89</ele>
        <time>2015-04-26T12:59:19Z</time>
      </trkpt>
      <trkpt lat="48.64709" lon="-2.43386">
        <ele>54.45</ele>
        <time>2015-04-26T12:59:41Z</time>
      </trkpt>
      <trkpt lat="48.64729" lon="-2.43368">
        <ele>53.49</ele>
        <time>2015-04-26T13:00:02Z</time>
      </trkpt>
      <trkpt lat="48.64742" lon="-2.43359">
        <ele>53.49</ele>
        <time>2015-04-26T13:00:16Z</time>
      </trkpt>
      <trkpt lat="48.64748" lon="-2.43354">
        <ele>52.53</ele>
        <time>2015-04-26T13:00:21Z</time>
      </trkpt>
      <trkpt lat="48.64773" lon="-2.43342">
        <ele>52.05</ele>
        <time>2015-04-26T13:00:44Z</time>
      </trkpt>
      <trkpt lat="48.64787" lon="-2.43338">
        <ele>51.09</ele>
        <time>2015-04-26T13:00:56Z</time>
      </trkpt>
      <trkpt lat="48.64803" lon="-2.43335">
        <ele>50.61</ele>
        <time>2015-04-26T13:01:10Z</time>
      </trkpt>
      <trkpt lat="48.64832" lon="-2.43334">
        <ele>49.16</ele>
        <time>2015-04-26T13:01:34Z</time>
      </trkpt>
      <trkpt lat="48.64843" lon="-2.43335">
        <ele>48.68</ele>
        <time>2015-04-26T13:01:44Z</time>
      </trkpt>
      <trkpt lat="48.64851" lon="-2.43341">
        <ele>47.72</ele>
        <time>2015-04-26T13:01:58Z</time>
      </trkpt>
      <trkpt lat="48.64879" lon="-2.43355">
        <ele>44.36</ele>
        <time>2015-04-26T13:02:20Z</time>
      </trkpt>
      <trkpt lat="48.64883" lon="-2.43358">
        <ele>45.32</ele>
        <time>2015-04-26T13:02:24Z</time>
      </trkpt>
      <trkpt lat="48.64884" lon="-2.43359">
        <ele>40.51</ele>
        <time>2015-04-26T13:02:25Z</time>
      </trkpt>
      <trkpt lat="48.64885" lon="-2.43359">
        <ele>40.51</ele>
        <time>2015-04-26T13:02:26Z</time>
      </trkpt>
      <trkpt lat="48.64886" lon="-2.4336">
        <ele>44.84</ele>
        <time>2015-04-26T13:02:27Z</time>
      </trkpt>
      <trkpt lat="48.64889" lon="-2.43363">
        <ele>32.82</ele>
        <time>2015-04-26T13:02:30Z</time>
      </trkpt>
      <trkpt lat="48.6489" lon="-2.43364">
        <ele>33.78</ele>
        <time>2015-04-26T13:02:31Z</time>
      </trkpt>
      <trkpt lat="48.6489" lon="-2.43364">
        <ele>46.28</ele>
        <time>2015-04-26T13:02:32Z</time>
      </trkpt>
      <trkpt lat="48.64891" lon="-2.43365">
        <ele>45.32</ele>
        <time>2015-04-26T13:02:33Z</time>
      </trkpt>
      <trkpt lat="48.64909" lon="-2.43385">
        <ele>43.4</ele>
        <time>2015-04-26T13:02:53Z</time>
      </trkpt>
      <trkpt lat="48.64913" lon="-2.43388">
        <ele>42.92</ele>
        <time>2015-04-26T13:02:57Z</time>
      </trkpt>
      <trkpt lat="48.64917" lon="-2.4339">
        <ele>42.44</ele>
        <time>2015-04-26T13:03:01Z</time>
      </trkpt>
      <trkpt lat="48.64924" lon="-2.43393">
        <ele>41.47</ele>
        <time>2015-04-26T13:03:07Z</time>
      </trkpt>
      <trkpt lat="48.64951" lon="-2.43393">
        <ele>38.59</ele>
        <time>2015-04-26T13:03:29Z</time>
      </trkpt>
      <trkpt lat="48.64956" lon="-2.43395">
        <ele>38.59</ele>
        <time>2015-04-26T13:03:33Z</time>
      </trkpt>
      <trkpt lat="48.6496" lon="-2.43397">
        <ele>38.11</ele>
        <time>2015-04-26T13:03:37Z</time>
      </trkpt>
      <trkpt lat="48.64966" lon="-2.43399">
        <ele>37.63</ele>
        <time>2015-04-26T13:03:42Z</time>
      </trkpt>
      <trkpt lat="48.64977" lon="-2.43399">
        <ele>36.67</ele>
        <time>2015-04-26T13:03:52Z</time>
      </trkpt>
      <trkpt lat="48.65001" lon="-2.43405">
        <ele>34.74</ele>
        <time>2015-04-26T13:04:15Z</time>
      </trkpt>
      <trkpt lat="48.65017" lon="-2.43418">
        <ele>31.86</ele>
        <time>2015-04-26T13:04:34Z</time>
      </trkpt>
      <trkpt lat="48.6502" lon="-2.4342">
        <ele>31.38</ele>
        <time>2015-04-26T13:04:37Z</time>
      </trkpt>
      <trkpt lat="48.65032" lon="-2.43433">
        <ele>28.98</ele>
        <time>2015-04-26T13:04:59Z</time>
      </trkpt>
      <trkpt lat="48.65039" lon="-2.43442">
        <ele>27.53</ele>
        <time>2015-04-26T13:05:37Z</time>
      </trkpt>
      <trkpt lat="48.65043" lon="-2.43448">
        <ele>27.05</ele>
        <time>2015-04-26T13:06:05Z</time>
      </trkpt>
      <trkpt lat="48.65043" lon="-2.43449">
        <ele>26.57</ele>
        <time>2015-04-26T13:06:06Z</time>
      </trkpt>
      <trkpt lat="48.6505" lon="-2.43456">
        <ele>26.09</ele>
        <time>2015-04-26T13:06:13Z</time>
      </trkpt>
      <trkpt lat="48.65056" lon="-2.43464">
        <ele>25.13</ele>
        <time>2015-04-26T13:06:20Z</time>
      </trkpt>
      <trkpt lat="48.65061" lon="-2.43465">
        <ele>19.36</ele>
        <time>2015-04-26T13:06:37Z</time>
      </trkpt>
      <trkpt lat="48.65061" lon="-2.43465">
        <ele>24.17</ele>
        <time>2015-04-26T13:06:38Z</time>
      </trkpt>
      <trkpt lat="48.65061" lon="-2.43465">
        <ele>24.65</ele>
        <time>2015-04-26T13:06:39Z</time>
      </trkpt>
      <trkpt lat="48.65077" lon="-2.43477">
        <ele>22.25</ele>
        <time>2015-04-26T13:07:00Z</time>
      </trkpt>
      <trkpt lat="48.65083" lon="-2.43482">
        <ele>26.09</ele>
        <time>2015-04-26T13:07:06Z</time>
      </trkpt>
      <trkpt lat="48.65085" lon="-2.43482">
        <ele>21.77</ele>
        <time>2015-04-26T13:07:07Z</time>
      </trkpt>
      <trkpt lat="48.65086" lon="-2.43483">
        <ele>21.29</ele>
        <time>2015-04-26T13:07:08Z</time>
      </trkpt>
      <trkpt lat="48.651" lon="-2.43494">
        <ele>19.36</ele>
        <time>2015-04-26T13:07:21Z</time>
      </trkpt>
      <trkpt lat="48.65122" lon="-2.43507">
        <ele>17.44</ele>
        <time>2015-04-26T13:07:41Z</time>
      </trkpt>
      <trkpt lat="48.65129" lon="-2.43506">
        <ele>16.48</ele>
        <time>2015-04-26T13:08:01Z</time>
      </trkpt>
      <trkpt lat="48.65129" lon="-2.43506">
        <ele>16</ele>
        <time>2015-04-26T13:08:23Z</time>
      </trkpt>
      <trkpt lat="48.65129" lon="-2.43506">
        <ele>15.52</ele>
        <time>2015-04-26T13:08:46Z</time>
      </trkpt>
      <trkpt lat="48.65132" lon="-2.43507">
        <ele>16.48</ele>
        <time>2015-04-26T13:11:33Z</time>
      </trkpt>
      <trkpt lat="48.65132" lon="-2.43507">
        <ele>16.48</ele>
        <time>2015-04-26T13:11:48Z</time>
      </trkpt>
      <trkpt lat="48.65133" lon="-2.43507">
        <ele>16.48</ele>
        <time>2015-04-26T13:14:16Z</time>
      </trkpt>
      <trkpt lat="48.65134" lon="-2.43507">
        <ele>16.48</ele>
        <time>2015-04-26T13:15:35Z</time>
      </trkpt>
      <trkpt lat="48.65134" lon="-2.43507">
        <ele>16.48</ele>
        <time>2015-04-26T13:15:36Z</time>
      </trkpt>
      <trkpt lat="48.65141" lon="-2.43524">
        <ele>16.48</ele>
        <time>2015-04-26T13:15:46Z</time>
      </trkpt>
      <trkpt lat="48.65155" lon="-2.4355">
        <ele>16.48</ele>
        <time>2015-04-26T13:16:05Z</time>
      </trkpt>
      <trkpt lat="48.65171" lon="-2.43574">
        <ele>16</ele>
        <time>2015-04-26T13:16:26Z</time>
      </trkpt>
      <trkpt lat="48.65172" lon="-2.43576">
        <ele>16.48</ele>
        <time>2015-04-26T13:16:28Z</time>
      </trkpt>
      <trkpt lat="48.65181" lon="-2.43591">
        <ele>16</ele>
        <time>2015-04-26T13:16:50Z</time>
      </trkpt>
      <trkpt lat="48.65193" lon="-2.4361">
        <ele>15.52</ele>
        <time>2015-04-26T13:17:12Z</time>
      </trkpt>
      <trkpt lat="48.65202" lon="-2.43626">
        <ele>15.52</ele>
        <time>2015-04-26T13:17:23Z</time>
      </trkpt>
      <trkpt lat="48.65211" lon="-2.43642">
        <ele>15.52</ele>
        <time>2015-04-26T13:17:39Z</time>
      </trkpt>
      <trkpt lat="48.65226" lon="-2.43677">
        <ele>15.52</ele>
        <time>2015-04-26T13:18:03Z</time>
      </trkpt>
      <trkpt lat="48.65235" lon="-2.43701">
        <ele>15.04</ele>
        <time>2015-04-26T13:18:21Z</time>
      </trkpt>
      <trkpt lat="48.65246" lon="-2.43743">
        <ele>15.04</ele>
        <time>2015-04-26T13:18:44Z</time>
      </trkpt>
      <trkpt lat="48.65251" lon="-2.43784">
        <ele>14.56</ele>
        <time>2015-04-26T13:19:06Z</time>
      </trkpt>
      <trkpt lat="48.6525" lon="-2.43816">
        <ele>15.04</ele>
        <time>2015-04-26T13:19:26Z</time>
      </trkpt>
      <trkpt lat="48.65245" lon="-2.43838">
        <ele>15.52</ele>
        <time>2015-04-26T13:19:48Z</time>
      </trkpt>
      <trkpt lat="48.65248" lon="-2.43845">
        <ele>15.52</ele>
        <time>2015-04-26T13:20:44Z</time>
      </trkpt>
      <trkpt lat="48.65248" lon="-2.43851">
        <ele>15.52</ele>
        <time>2015-04-26T13:20:49Z</time>
      </trkpt>
      <trkpt lat="48.65247" lon="-2.43856">
        <ele>16</ele>
        <time>2015-04-26T13:20:52Z</time>
      </trkpt>
      <trkpt lat="48.65246" lon="-2.43859">
        <ele>15.52</ele>
        <time>2015-04-26T13:20:54Z</time>
      </trkpt>
      <trkpt lat="48.65245" lon="-2.43864">
        <ele>16</ele>
        <time>2015-04-26T13:20:57Z</time>
      </trkpt>
      <trkpt lat="48.65243" lon="-2.43868">
        <ele>16</ele>
        <time>2015-04-26T13:21:00Z</time>
      </trkpt>
      <trkpt lat="48.6523" lon="-2.43898">
        <ele>16</ele>
        <time>2015-04-26T13:21:22Z</time>
      </trkpt>
      <trkpt lat="48.65223" lon="-2.43906">
        <ele>16.48</ele>
        <time>2015-04-26T13:21:45Z</time>
      </trkpt>
      <trkpt lat="48.65218" lon="-2.43924">
        <ele>16.48</ele>
        <time>2015-04-26T13:22:05Z</time>
      </trkpt>
      <trkpt lat="48.65217" lon="-2.43927">
        <ele>16.48</ele>
        <time>2015-04-26T13:22:07Z</time>
      </trkpt>
      <trkpt lat="48.65212" lon="-2.43937">
        <ele>16.48</ele>
        <time>2015-04-26T13:22:15Z</time>
      </trkpt>
      <trkpt lat="48.65205" lon="-2.43945">
        <ele>16.48</ele>
        <time>2015-04-26T13:22:26Z</time>
      </trkpt>
      <trkpt lat="48.65196" lon="-2.43937">
        <ele>16.96</ele>
        <time>2015-04-26T13:22:44Z</time>
      </trkpt>
      <trkpt lat="48.65189" lon="-2.43939">
        <ele>16.96</ele>
        <time>2015-04-26T13:23:05Z</time>
      </trkpt>
      <trkpt lat="48.65187" lon="-2.43943">
        <ele>16.96</ele>
        <time>2015-04-26T13:23:28Z</time>
      </trkpt>
      <trkpt lat="48.65181" lon="-2.43936">
        <ele>17.44</ele>
        <time>2015-04-26T13:24:08Z</time>
      </trkpt>
      <trkpt lat="48.65172" lon="-2.43947">
        <ele>17.92</ele>
        <time>2015-04-26T13:24:32Z</time>
      </trkpt>
      <trkpt lat="48.65179" lon="-2.43959">
        <ele>17.44</ele>
        <time>2015-04-26T13:24:53Z</time>
      </trkpt>
      <trkpt lat="48.65177" lon="-2.43963">
        <ele>17.44</ele>
        <time>2015-04-26T13:25:22Z</time>
      </trkpt>
      <trkpt lat="48.65171" lon="-2.43974">
        <ele>16.96</ele>
        <time>2015-04-26T13:25:51Z</time>
      </trkpt>
      <trkpt lat="48.65182" lon="-2.43971">
        <ele>16.96</ele>
        <time>2015-04-26T13:26:18Z</time>
      </trkpt>
      <trkpt lat="48.65181" lon="-2.43963">
        <ele>16.96</ele>
        <time>2015-04-26T13:26:37Z</time>
      </trkpt>
      <trkpt lat="48.65185" lon="-2.43968">
        <ele>16.48</ele>
        <time>2015-04-26T13:27:00Z</time>
      </trkpt>
      <trkpt lat="48.65185" lon="-2.43971">
        <ele>16.48</ele>
        <time>2015-04-26T13:27:40Z</time>
      </trkpt>
      <trkpt lat="48.65181" lon="-2.43993">
        <ele>16.48</ele>
        <time>2015-04-26T13:27:58Z</time>
      </trkpt>
      <trkpt lat="48.65181" lon="-2.44007">
        <ele>16.48</ele>
        <time>2015-04-26T13:28:19Z</time>
      </trkpt>
      <trkpt lat="48.6518" lon="-2.44018">
        <ele>16.48</ele>
        <time>2015-04-26T13:29:02Z</time>
      </trkpt>
      <trkpt lat="48.65176" lon="-2.44037">
        <ele>16</ele>
        <time>2015-04-26T13:29:19Z</time>
      </trkpt>
      <trkpt lat="48.65167" lon="-2.44067">
        <ele>15.52</ele>
        <time>2015-04-26T13:29:43Z</time>
      </trkpt>
      <trkpt lat="48.65167" lon="-2.44067">
        <ele>8.31</ele>
        <time>2015-04-26T13:30:22Z</time>
      </trkpt>
      <trkpt lat="48.65167" lon="-2.44067">
        <ele>14.56</ele>
        <time>2015-04-26T13:30:23Z</time>
      </trkpt>
      <trkpt lat="48.65167" lon="-2.44067">
        <ele>19.84</ele>
        <time>2015-04-26T13:30:33Z</time>
      </trkpt>
      <trkpt lat="48.65167" lon="-2.44067">
        <ele>16</ele>
        <time>2015-04-26T13:30:34Z</time>
      </trkpt>
      <trkpt lat="48.65167" lon="-2.44067">
        <ele>15.04</ele>
        <time>2015-04-26T13:30:56Z</time>
      </trkpt>
      <trkpt lat="48.65167" lon="-2.44068">
        <ele>14.56</ele>
        <time>2015-04-26T13:32:09Z</time>
      </trkpt>
      <trkpt lat="48.65163" lon="-2.4408">
        <ele>14.56</ele>
        <time>2015-04-26T13:32:52Z</time>
      </trkpt>
      <trkpt lat="48.65156" lon="-2.44081">
        <ele>14.56</ele>
        <time>2015-04-26T13:33:09Z</time>
      </trkpt>
      <trkpt lat="48.65156" lon="-2.44081">
        <ele>16.48</ele>
        <time>2015-04-26T13:33:27Z</time>
      </trkpt>
      <trkpt lat="48.65156" lon="-2.44083">
        <ele>19.84</ele>
        <time>2015-04-26T13:33:48Z</time>
      </trkpt>
      <trkpt lat="48.65156" lon="-2.44083">
        <ele>22.73</ele>
        <time>2015-04-26T13:34:05Z</time>
      </trkpt>
      <trkpt lat="48.65156" lon="-2.44083">
        <ele>25.61</ele>
        <time>2015-04-26T13:34:19Z</time>
      </trkpt>
      <trkpt lat="48.65156" lon="-2.44083">
        <ele>28.5</ele>
        <time>2015-04-26T13:34:40Z</time>
      </trkpt>
      <trkpt lat="48.65156" lon="-2.44083">
        <ele>30.42</ele>
        <time>2015-04-26T13:35:04Z</time>
      </trkpt>
      <trkpt lat="48.65156" lon="-2.44083">
        <ele>32.82</ele>
        <time>2015-04-26T13:35:28Z</time>
      </trkpt>
      <trkpt lat="48.65147" lon="-2.44082">
        <ele>35.23</ele>
        <time>2015-04-26T13:35:50Z</time>
      </trkpt>
      <trkpt lat="48.65144" lon="-2.44085">
        <ele>35.71</ele>
        <time>2015-04-26T13:36:12Z</time>
      </trkpt>
      <trkpt lat="48.6514" lon="-2.44086">
        <ele>35.23</ele>
        <time>2015-04-26T13:37:01Z</time>
      </trkpt>
      <trkpt lat="48.65139" lon="-2.44086">
        <ele>35.23</ele>
        <time>2015-04-26T13:37:21Z</time>
      </trkpt>
      <trkpt lat="48.65137" lon="-2.44086">
        <ele>34.26</ele>
        <time>2015-04-26T13:37:52Z</time>
      </trkpt>
      <trkpt lat="48.65131" lon="-2.44096">
        <ele>32.82</ele>
        <time>2015-04-26T13:38:33Z</time>
      </trkpt>
      <trkpt lat="48.65113" lon="-2.44114">
        <ele>29.46</ele>
        <time>2015-04-26T13:38:48Z</time>
      </trkpt>
      <trkpt lat="48.65109" lon="-2.4412">
        <ele>26.57</ele>
        <time>2015-04-26T13:39:04Z</time>
      </trkpt>
      <trkpt lat="48.65105" lon="-2.4413">
        <ele>23.21</ele>
        <time>2015-04-26T13:39:22Z</time>
      </trkpt>
      <trkpt lat="48.65096" lon="-2.44152">
        <ele>21.29</ele>
        <time>2015-04-26T13:39:41Z</time>
      </trkpt>
      <trkpt lat="48.65085" lon="-2.44182">
        <ele>18.88</ele>
        <time>2015-04-26T13:40:00Z</time>
      </trkpt>
      <trkpt lat="48.65075" lon="-2.44214">
        <ele>17.44</ele>
        <time>2015-04-26T13:40:21Z</time>
      </trkpt>
      <trkpt lat="48.65068" lon="-2.44218">
        <ele>18.4</ele>
        <time>2015-04-26T13:40:39Z</time>
      </trkpt>
      <trkpt lat="48.65067" lon="-2.44217">
        <ele>18.88</ele>
        <time>2015-04-26T13:40:41Z</time>
      </trkpt>
      <trkpt lat="48.65061" lon="-2.44217">
        <ele>19.84</ele>
        <time>2015-04-26T13:40:48Z</time>
      </trkpt>
      <trkpt lat="48.65056" lon="-2.44238">
        <ele>20.81</ele>
        <time>2015-04-26T13:41:09Z</time>
      </trkpt>
      <trkpt lat="48.65052" lon="-2.44262">
        <ele>21.77</ele>
        <time>2015-04-26T13:41:30Z</time>
      </trkpt>
      <trkpt lat="48.6505" lon="-2.44274">
        <ele>22.25</ele>
        <time>2015-04-26T13:41:51Z</time>
      </trkpt>
      <trkpt lat="48.6505" lon="-2.44274">
        <ele>20.32</ele>
        <time>2015-04-26T13:42:13Z</time>
      </trkpt>
      <trkpt lat="48.65055" lon="-2.44281">
        <ele>18.88</ele>
        <time>2015-04-26T13:42:21Z</time>
      </trkpt>
      <trkpt lat="48.65062" lon="-2.44286">
        <ele>17.44</ele>
        <time>2015-04-26T13:42:39Z</time>
      </trkpt>
      <trkpt lat="48.6506" lon="-2.44292">
        <ele>17.92</ele>
        <time>2015-04-26T13:43:05Z</time>
      </trkpt>
      <trkpt lat="48.65056" lon="-2.443">
        <ele>14.08</ele>
        <time>2015-04-26T13:43:13Z</time>
      </trkpt>
      <trkpt lat="48.65056" lon="-2.44302">
        <ele>17.92</ele>
        <time>2015-04-26T13:43:14Z</time>
      </trkpt>
      <trkpt lat="48.65051" lon="-2.44315">
        <ele>18.4</ele>
        <time>2015-04-26T13:43:23Z</time>
      </trkpt>
      <trkpt lat="48.65037" lon="-2.44336">
        <ele>18.88</ele>
        <time>2015-04-26T13:43:42Z</time>
      </trkpt>
      <trkpt lat="48.65036" lon="-2.44342">
        <ele>18.88</ele>
        <time>2015-04-26T13:43:46Z</time>
      </trkpt>
      <trkpt lat="48.65035" lon="-2.44347">
        <ele>19.36</ele>
        <time>2015-04-26T13:43:49Z</time>
      </trkpt>
      <trkpt lat="48.65029" lon="-2.44363">
        <ele>19.36</ele>
        <time>2015-04-26T13:44:09Z</time>
      </trkpt>
      <trkpt lat="48.65025" lon="-2.44364">
        <ele>18.88</ele>
        <time>2015-04-26T13:44:31Z</time>
      </trkpt>
      <trkpt lat="48.65022" lon="-2.44363">
        <ele>19.36</ele>
        <time>2015-04-26T13:45:12Z</time>
      </trkpt>
      <trkpt lat="48.65019" lon="-2.44374">
        <ele>18.88</ele>
        <time>2015-04-26T13:45:42Z</time>
      </trkpt>
      <trkpt lat="48.65013" lon="-2.44389">
        <ele>18.88</ele>
        <time>2015-04-26T13:46:02Z</time>
      </trkpt>
      <trkpt lat="48.65006" lon="-2.44402">
        <ele>18.88</ele>
        <time>2015-04-26T13:46:15Z</time>
      </trkpt>
      <trkpt lat="48.64992" lon="-2.44417">
        <ele>18.4</ele>
        <time>2015-04-26T13:46:30Z</time>
      </trkpt>
      <trkpt lat="48.6497" lon="-2.44436">
        <ele>18.4</ele>
        <time>2015-04-26T13:46:52Z</time>
      </trkpt>
      <trkpt lat="48.64955" lon="-2.44457">
        <ele>17.92</ele>
        <time>2015-04-26T13:47:11Z</time>
      </trkpt>
      <trkpt lat="48.64949" lon="-2.44467">
        <ele>17.44</ele>
        <time>2015-04-26T13:47:19Z</time>
      </trkpt>
      <trkpt lat="48.64935" lon="-2.44497">
        <ele>17.44</ele>
        <time>2015-04-26T13:47:42Z</time>
      </trkpt>
      <trkpt lat="48.64922" lon="-2.44518">
        <ele>16.96</ele>
        <time>2015-04-26T13:47:59Z</time>
      </trkpt>
      <trkpt lat="48.64912" lon="-2.44541">
        <ele>16.48</ele>
        <time>2015-04-26T13:48:16Z</time>
      </trkpt>
      <trkpt lat="48.64901" lon="-2.44558">
        <ele>16</ele>
        <time>2015-04-26T13:48:33Z</time>
      </trkpt>
      <trkpt lat="48.64882" lon="-2.44585">
        <ele>15.52</ele>
        <time>2015-04-26T13:48:55Z</time>
      </trkpt>
      <trkpt lat="48.64871" lon="-2.44606">
        <ele>16</ele>
        <time>2015-04-26T13:49:11Z</time>
      </trkpt>
      <trkpt lat="48.64861" lon="-2.44636">
        <ele>16</ele>
        <time>2015-04-26T13:49:29Z</time>
      </trkpt>
      <trkpt lat="48.64857" lon="-2.44674">
        <ele>16</ele>
        <time>2015-04-26T13:49:50Z</time>
      </trkpt>
      <trkpt lat="48.64856" lon="-2.44683">
        <ele>16</ele>
        <time>2015-04-26T13:49:55Z</time>
      </trkpt>
      <trkpt lat="48.64856" lon="-2.44692">
        <ele>15.52</ele>
        <time>2015-04-26T13:50:00Z</time>
      </trkpt>
      <trkpt lat="48.64858" lon="-2.44698">
        <ele>15.52</ele>
        <time>2015-04-26T13:50:04Z</time>
      </trkpt>
      <trkpt lat="48.64858" lon="-2.44719">
        <ele>16.48</ele>
        <time>2015-04-26T13:50:16Z</time>
      </trkpt>
      <trkpt lat="48.64858" lon="-2.44723">
        <ele>16</ele>
        <time>2015-04-26T13:50:18Z</time>
      </trkpt>
      <trkpt lat="48.64861" lon="-2.44742">
        <ele>16</ele>
        <time>2015-04-26T13:50:29Z</time>
      </trkpt>
      <trkpt lat="48.64867" lon="-2.44755">
        <ele>16</ele>
        <time>2015-04-26T13:50:49Z</time>
      </trkpt>
      <trkpt lat="48.64875" lon="-2.44787">
        <ele>16</ele>
        <time>2015-04-26T13:51:09Z</time>
      </trkpt>
      <trkpt lat="48.6487" lon="-2.44821">
        <ele>16</ele>
        <time>2015-04-26T13:51:29Z</time>
      </trkpt>
      <trkpt lat="48.64846" lon="-2.4484">
        <ele>17.44</ele>
        <time>2015-04-26T13:51:55Z</time>
      </trkpt>
      <trkpt lat="48.64837" lon="-2.44855">
        <ele>17.92</ele>
        <time>2015-04-26T13:52:12Z</time>
      </trkpt>
      <trkpt lat="48.64834" lon="-2.44879">
        <ele>18.88</ele>
        <time>2015-04-26T13:52:31Z</time>
      </trkpt>
      <trkpt lat="48.64834" lon="-2.44879">
        <ele>19.36</ele>
        <time>2015-04-26T13:53:04Z</time>
      </trkpt>
      <trkpt lat="48.64834" lon="-2.44881">
        <ele>19.84</ele>
        <time>2015-04-26T13:53:43Z</time>
      </trkpt>
      <trkpt lat="48.64837" lon="-2.44897">
        <ele>20.32</ele>
        <time>2015-04-26T13:54:01Z</time>
      </trkpt>
      <trkpt lat="48.64831" lon="-2.44909">
        <ele>22.73</ele>
        <time>2015-04-26T13:54:22Z</time>
      </trkpt>
      <trkpt lat="48.64831" lon="-2.44916">
        <ele>22.73</ele>
        <time>2015-04-26T13:54:27Z</time>
      </trkpt>
      <trkpt lat="48.64826" lon="-2.44944">
        <ele>22.25</ele>
        <time>2015-04-26T13:54:49Z</time>
      </trkpt>
      <trkpt lat="48.64817" lon="-2.44966">
        <ele>22.25</ele>
        <time>2015-04-26T13:55:09Z</time>
      </trkpt>
      <trkpt lat="48.64805" lon="-2.44987">
        <ele>23.21</ele>
        <time>2015-04-26T13:55:30Z</time>
      </trkpt>
      <trkpt lat="48.64802" lon="-2.44997">
        <ele>23.21</ele>
        <time>2015-04-26T13:55:52Z</time>
      </trkpt>
      <trkpt lat="48.64802" lon="-2.45001">
        <ele>23.69</ele>
        <time>2015-04-26T13:56:13Z</time>
      </trkpt>
      <trkpt lat="48.64801" lon="-2.45007">
        <ele>22.25</ele>
        <time>2015-04-26T13:56:17Z</time>
      </trkpt>
      <trkpt lat="48.648" lon="-2.45011">
        <ele>22.25</ele>
        <time>2015-04-26T13:56:19Z</time>
      </trkpt>
      <trkpt lat="48.64784" lon="-2.45025">
        <ele>23.21</ele>
        <time>2015-04-26T13:56:35Z</time>
      </trkpt>
      <trkpt lat="48.64778" lon="-2.45046">
        <ele>22.25</ele>
        <time>2015-04-26T13:56:50Z</time>
      </trkpt>
      <trkpt lat="48.64764" lon="-2.45082">
        <ele>20.81</ele>
        <time>2015-04-26T13:57:13Z</time>
      </trkpt>
      <trkpt lat="48.64763" lon="-2.45091">
        <ele>19.84</ele>
        <time>2015-04-26T13:57:19Z</time>
      </trkpt>
      <trkpt lat="48.64755" lon="-2.45116">
        <ele>22.25</ele>
        <time>2015-04-26T13:57:43Z</time>
      </trkpt>
      <trkpt lat="48.64754" lon="-2.45116">
        <ele>22.25</ele>
        <time>2015-04-26T13:57:44Z</time>
      </trkpt>
      <trkpt lat="48.64752" lon="-2.45123">
        <ele>22.25</ele>
        <time>2015-04-26T13:57:49Z</time>
      </trkpt>
      <trkpt lat="48.64752" lon="-2.45127">
        <ele>22.25</ele>
        <time>2015-04-26T13:57:51Z</time>
      </trkpt>
      <trkpt lat="48.64754" lon="-2.45158">
        <ele>21.29</ele>
        <time>2015-04-26T13:58:09Z</time>
      </trkpt>
      <trkpt lat="48.64741" lon="-2.45191">
        <ele>22.25</ele>
        <time>2015-04-26T13:58:33Z</time>
      </trkpt>
      <trkpt lat="48.64732" lon="-2.45222">
        <ele>22.25</ele>
        <time>2015-04-26T13:58:55Z</time>
      </trkpt>
      <trkpt lat="48.64732" lon="-2.45226">
        <ele>22.25</ele>
        <time>2015-04-26T13:58:58Z</time>
      </trkpt>
      <trkpt lat="48.6473" lon="-2.4523">
        <ele>22.25</ele>
        <time>2015-04-26T13:59:01Z</time>
      </trkpt>
      <trkpt lat="48.64727" lon="-2.45238">
        <ele>22.25</ele>
        <time>2015-04-26T13:59:06Z</time>
      </trkpt>
      <trkpt lat="48.64727" lon="-2.45242">
        <ele>22.25</ele>
        <time>2015-04-26T13:59:08Z</time>
      </trkpt>
      <trkpt lat="48.64719" lon="-2.45264">
        <ele>22.25</ele>
        <time>2015-04-26T13:59:25Z</time>
      </trkpt>
      <trkpt lat="48.64712" lon="-2.45292">
        <ele>22.73</ele>
        <time>2015-04-26T13:59:45Z</time>
      </trkpt>
      <trkpt lat="48.64702" lon="-2.45312">
        <ele>21.77</ele>
        <time>2015-04-26T14:00:03Z</time>
      </trkpt>
      <trkpt lat="48.64701" lon="-2.45313">
        <ele>21.77</ele>
        <time>2015-04-26T14:00:05Z</time>
      </trkpt>
      <trkpt lat="48.647" lon="-2.45317">
        <ele>21.29</ele>
        <time>2015-04-26T14:00:38Z</time>
      </trkpt>
      <trkpt lat="48.64699" lon="-2.45322">
        <ele>21.77</ele>
        <time>2015-04-26T14:01:33Z</time>
      </trkpt>
      <trkpt lat="48.64699" lon="-2.45322">
        <ele>21.77</ele>
        <time>2015-04-26T14:02:12Z</time>
      </trkpt>
      <trkpt lat="48.64699" lon="-2.45326">
        <ele>21.77</ele>
        <time>2015-04-26T14:02:15Z</time>
      </trkpt>
      <trkpt lat="48.64688" lon="-2.4534">
        <ele>20.81</ele>
        <time>2015-04-26T14:02:34Z</time>
      </trkpt>
      <trkpt lat="48.6469" lon="-2.45349">
        <ele>20.81</ele>
        <time>2015-04-26T14:02:48Z</time>
      </trkpt>
      <trkpt lat="48.6471" lon="-2.45365">
        <ele>20.81</ele>
        <time>2015-04-26T14:03:07Z</time>
      </trkpt>
      <trkpt lat="48.64732" lon="-2.45377">
        <ele>19.84</ele>
        <time>2015-04-26T14:03:28Z</time>
      </trkpt>
      <trkpt lat="48.64737" lon="-2.4538">
        <ele>19.84</ele>
        <time>2015-04-26T14:03:32Z</time>
      </trkpt>
      <trkpt lat="48.6474" lon="-2.45383">
        <ele>20.32</ele>
        <time>2015-04-26T14:03:36Z</time>
      </trkpt>
      <trkpt lat="48.64742" lon="-2.45402">
        <ele>20.81</ele>
        <time>2015-04-26T14:03:53Z</time>
      </trkpt>
      <trkpt lat="48.64738" lon="-2.45407">
        <ele>21.29</ele>
        <time>2015-04-26T14:03:58Z</time>
      </trkpt>
      <trkpt lat="48.64736" lon="-2.45408">
        <ele>21.77</ele>
        <time>2015-04-26T14:04:00Z</time>
      </trkpt>
      <trkpt lat="48.64725" lon="-2.45414">
        <ele>22.25</ele>
        <time>2015-04-26T14:04:11Z</time>
      </trkpt>
      <trkpt lat="48.64717" lon="-2.45418">
        <ele>23.21</ele>
        <time>2015-04-26T14:04:20Z</time>
      </trkpt>
      <trkpt lat="48.64697" lon="-2.45434">
        <ele>25.61</ele>
        <time>2015-04-26T14:04:43Z</time>
      </trkpt>
      <trkpt lat="48.64692" lon="-2.45441">
        <ele>26.57</ele>
        <time>2015-04-26T14:04:49Z</time>
      </trkpt>
      <trkpt lat="48.64673" lon="-2.45465">
        <ele>29.46</ele>
        <time>2015-04-26T14:05:13Z</time>
      </trkpt>
      <trkpt lat="48.64669" lon="-2.45471">
        <ele>29.46</ele>
        <time>2015-04-26T14:05:18Z</time>
      </trkpt>
      <trkpt lat="48.64665" lon="-2.4548">
        <ele>30.42</ele>
        <time>2015-04-26T14:05:25Z</time>
      </trkpt>
      <trkpt lat="48.6466" lon="-2.45486">
        <ele>30.9</ele>
        <time>2015-04-26T14:05:31Z</time>
      </trkpt>
      <trkpt lat="48.64658" lon="-2.45488">
        <ele>30.42</ele>
        <time>2015-04-26T14:05:33Z</time>
      </trkpt>
      <trkpt lat="48.64654" lon="-2.45493">
        <ele>31.38</ele>
        <time>2015-04-26T14:05:38Z</time>
      </trkpt>
      <trkpt lat="48.6465" lon="-2.45502">
        <ele>31.86</ele>
        <time>2015-04-26T14:05:44Z</time>
      </trkpt>
      <trkpt lat="48.64646" lon="-2.45507">
        <ele>32.34</ele>
        <time>2015-04-26T14:05:49Z</time>
      </trkpt>
      <trkpt lat="48.64638" lon="-2.4552">
        <ele>33.3</ele>
        <time>2015-04-26T14:06:03Z</time>
      </trkpt>
      <trkpt lat="48.64637" lon="-2.45524">
        <ele>33.78</ele>
        <time>2015-04-26T14:06:06Z</time>
      </trkpt>
      <trkpt lat="48.64621" lon="-2.45556">
        <ele>35.23</ele>
        <time>2015-04-26T14:06:28Z</time>
      </trkpt>
      <trkpt lat="48.64614" lon="-2.45574">
        <ele>36.19</ele>
        <time>2015-04-26T14:06:49Z</time>
      </trkpt>
      <trkpt lat="48.64609" lon="-2.45585">
        <ele>36.19</ele>
        <time>2015-04-26T14:07:17Z</time>
      </trkpt>
      <trkpt lat="48.64601" lon="-2.45579">
        <ele>36.67</ele>
        <time>2015-04-26T14:07:40Z</time>
      </trkpt>
      <trkpt lat="48.64581" lon="-2.45588">
        <ele>38.59</ele>
        <time>2015-04-26T14:08:03Z</time>
      </trkpt>
      <trkpt lat="48.64563" lon="-2.45587">
        <ele>39.55</ele>
        <time>2015-04-26T14:08:24Z</time>
      </trkpt>
      <trkpt lat="48.64542" lon="-2.45583">
        <ele>40.03</ele>
        <time>2015-04-26T14:08:46Z</time>
      </trkpt>
      <trkpt lat="48.64519" lon="-2.45576">
        <ele>40.51</ele>
        <time>2015-04-26T14:09:09Z</time>
      </trkpt>
      <trkpt lat="48.6449" lon="-2.4557">
        <ele>40.99</ele>
        <time>2015-04-26T14:09:36Z</time>
      </trkpt>
      <trkpt lat="48.64466" lon="-2.45564">
        <ele>41.95</ele>
        <time>2015-04-26T14:10:00Z</time>
      </trkpt>
      <trkpt lat="48.64444" lon="-2.45565">
        <ele>43.4</ele>
        <time>2015-04-26T14:10:26Z</time>
      </trkpt>
      <trkpt lat="48.64425" lon="-2.4557">
        <ele>44.36</ele>
        <time>2015-04-26T14:10:53Z</time>
      </trkpt>
      <trkpt lat="48.64412" lon="-2.45565">
        <ele>45.32</ele>
        <time>2015-04-26T14:11:17Z</time>
      </trkpt>
      <trkpt lat="48.64389" lon="-2.45556">
        <ele>46.76</ele>
        <time>2015-04-26T14:11:45Z</time>
      </trkpt>
      <trkpt lat="48.64342" lon="-2.45562">
        <ele>47.72</ele>
        <time>2015-04-26T14:12:10Z</time>
      </trkpt>
      <trkpt lat="48.64319" lon="-2.45557">
        <ele>48.68</ele>
        <time>2015-04-26T14:12:36Z</time>
      </trkpt>
      <trkpt lat="48.64295" lon="-2.45563">
        <ele>49.16</ele>
        <time>2015-04-26T14:13:02Z</time>
      </trkpt>
      <trkpt lat="48.64275" lon="-2.45551">
        <ele>49.65</ele>
        <time>2015-04-26T14:13:24Z</time>
      </trkpt>
      <trkpt lat="48.64246" lon="-2.45568">
        <ele>51.57</ele>
        <time>2015-04-26T14:13:51Z</time>
      </trkpt>
      <trkpt lat="48.64224" lon="-2.45573">
        <ele>53.01</ele>
        <time>2015-04-26T14:14:16Z</time>
      </trkpt>
      <trkpt lat="48.64214" lon="-2.45576">
        <ele>53.49</ele>
        <time>2015-04-26T14:14:26Z</time>
      </trkpt>
      <trkpt lat="48.64212" lon="-2.45591">
        <ele>53.49</ele>
        <time>2015-04-26T14:14:45Z</time>
      </trkpt>
      <trkpt lat="48.64211" lon="-2.45593">
        <ele>53.49</ele>
        <time>2015-04-26T14:15:36Z</time>
      </trkpt>
      <trkpt lat="48.64212" lon="-2.45599">
        <ele>53.97</ele>
        <time>2015-04-26T14:16:00Z</time>
      </trkpt>
      <trkpt lat="48.64197" lon="-2.45605">
        <ele>53.49</ele>
        <time>2015-04-26T14:16:20Z</time>
      </trkpt>
      <trkpt lat="48.64195" lon="-2.45605">
        <ele>53.01</ele>
        <time>2015-04-26T14:16:23Z</time>
      </trkpt>
      <trkpt lat="48.64168" lon="-2.45601">
        <ele>53.97</ele>
        <time>2015-04-26T14:16:50Z</time>
      </trkpt>
      <trkpt lat="48.64152" lon="-2.45598">
        <ele>53.97</ele>
        <time>2015-04-26T14:17:11Z</time>
      </trkpt>
      <trkpt lat="48.64137" lon="-2.45589">
        <ele>53.97</ele>
        <time>2015-04-26T14:17:33Z</time>
      </trkpt>
      <trkpt lat="48.64116" lon="-2.45584">
        <ele>54.45</ele>
        <time>2015-04-26T14:17:54Z</time>
      </trkpt>
      <trkpt lat="48.64091" lon="-2.4559">
        <ele>55.89</ele>
        <time>2015-04-26T14:18:16Z</time>
      </trkpt>
      <trkpt lat="48.64075" lon="-2.45589">
        <ele>55.89</ele>
        <time>2015-04-26T14:18:46Z</time>
      </trkpt>
      <trkpt lat="48.64067" lon="-2.45587">
        <ele>56.86</ele>
        <time>2015-04-26T14:18:56Z</time>
      </trkpt>
      <trkpt lat="48.64051" lon="-2.45583">
        <ele>57.82</ele>
        <time>2015-04-26T14:19:15Z</time>
      </trkpt>
      <trkpt lat="48.64034" lon="-2.45579">
        <ele>59.26</ele>
        <time>2015-04-26T14:19:33Z</time>
      </trkpt>
      <trkpt lat="48.6401" lon="-2.45577">
        <ele>60.22</ele>
        <time>2015-04-26T14:19:53Z</time>
      </trkpt>
      <trkpt lat="48.63987" lon="-2.45577">
        <ele>61.18</ele>
        <time>2015-04-26T14:20:12Z</time>
      </trkpt>
      <trkpt lat="48.63968" lon="-2.45576">
        <ele>62.14</ele>
        <time>2015-04-26T14:20:30Z</time>
      </trkpt>
      <trkpt lat="48.63953" lon="-2.45578">
        <ele>62.62</ele>
        <time>2015-04-26T14:20:41Z</time>
      </trkpt>
      <trkpt lat="48.63931" lon="-2.45578">
        <ele>63.58</ele>
        <time>2015-04-26T14:21:00Z</time>
      </trkpt>
      <trkpt lat="48.63925" lon="-2.45579">
        <ele>64.07</ele>
        <time>2015-04-26T14:21:05Z</time>
      </trkpt>
      <trkpt lat="48.63913" lon="-2.45584">
        <ele>64.55</ele>
        <time>2015-04-26T14:21:31Z</time>
      </trkpt>
      <trkpt lat="48.639" lon="-2.45587">
        <ele>64.07</ele>
        <time>2015-04-26T14:22:05Z</time>
      </trkpt>
      <trkpt lat="48.63896" lon="-2.45584">
        <ele>64.55</ele>
        <time>2015-04-26T14:22:09Z</time>
      </trkpt>
      <trkpt lat="48.63884" lon="-2.45583">
        <ele>65.03</ele>
        <time>2015-04-26T14:22:20Z</time>
      </trkpt>
      <trkpt lat="48.63868" lon="-2.45579">
        <ele>65.51</ele>
        <time>2015-04-26T14:22:34Z</time>
      </trkpt>
      <trkpt lat="48.63862" lon="-2.45578">
        <ele>65.51</ele>
        <time>2015-04-26T14:22:39Z</time>
      </trkpt>
      <trkpt lat="48.63854" lon="-2.45578">
        <ele>63.1</ele>
        <time>2015-04-26T14:22:46Z</time>
      </trkpt>
      <trkpt lat="48.63851" lon="-2.45578">
        <ele>65.99</ele>
        <time>2015-04-26T14:22:49Z</time>
      </trkpt>
    </trkseg>
  </trk>
</gpx>